sensor_id;sensor_type;location;lat;lon;timestamp;temperature;humidity
23116;DHT22;11727;52.134;5.052;2023-07-29T00:00:43;17.70;99.90
23116;DHT22;11727;52.134;5.052;2023-07-29T00:03:09;17.70;99.90
23116;DHT22;11727;52.134;5.052;2023-07-29T00:05:35;17.70;99.90
23116;DHT22;11727;52.134;5.052;2023-07-29T00:08:00;17.70;99.90
23116;DHT22;11727;52.134;5.052;2023-07-29T00:10:27;17.70;99.90
23116;DHT22;11727;52.134;5.052;2023-07-29T00:12:52;17.70;99.90
23116;DHT22;11727;52.134;5.052;2023-07-29T00:15:18;17.70;99.90
23116;DHT22;11727;52.134;5.052;2023-07-29T00:17:44;17.70;99.90
23116;DHT22;11727;52.134;5.052;2023-07-29T00:20:09;17.70;99.90
23116;DHT22;11727;52.134;5.052;2023-07-29T00:22:35;17.70;99.90
23116;DHT22;11727;52.134;5.052;2023-07-29T00:25:01;17.70;99.90
23116;DHT22;11727;52.134;5.052;2023-07-29T00:27:26;17.70;99.90
23116;DHT22;11727;52.134;5.052;2023-07-29T00:29:52;17.70;99.90
23116;DHT22;11727;52.134;5.052;2023-07-29T00:32:18;17.70;99.90
23116;DHT22;11727;52.134;5.052;2023-07-29T00:34:43;17.80;99.90
23116;DHT22;11727;52.134;5.052;2023-07-29T00:37:09;17.70;99.90
23116;DHT22;11727;52.134;5.052;2023-07-29T00:39:36;17.80;99.90
23116;DHT22;11727;52.134;5.052;2023-07-29T00:42:03;17.70;99.90
23116;DHT22;11727;52.134;5.052;2023-07-29T00:44:28;17.80;99.90
23116;DHT22;11727;52.134;5.052;2023-07-29T00:46:54;17.80;99.90
23116;DHT22;11727;52.134;5.052;2023-07-29T00:49:20;17.80;99.90
23116;DHT22;11727;52.134;5.052;2023-07-29T00:51:47;17.70;99.90
23116;DHT22;11727;52.134;5.052;2023-07-29T00:54:13;17.70;99.90
23116;DHT22;11727;52.134;5.052;2023-07-29T00:56:39;17.70;99.90
23116;DHT22;11727;52.134;5.052;2023-07-29T00:59:05;17.70;99.90
23116;DHT22;11727;52.134;5.052;2023-07-29T01:01:31;17.70;99.90
23116;DHT22;11727;52.134;5.052;2023-07-29T01:03:57;17.70;99.90
23116;DHT22;11727;52.134;5.052;2023-07-29T01:06:46;17.70;99.90
23116;DHT22;11727;52.134;5.052;2023-07-29T01:12:34;17.60;99.90
23116;DHT22;11727;52.134;5.052;2023-07-29T01:15:06;17.60;99.90
23116;DHT22;11727;52.134;5.052;2023-07-29T01:17:43;17.60;99.90
23116;DHT22;11727;52.134;5.052;2023-07-29T01:20:14;17.50;99.90
23116;DHT22;11727;52.134;5.052;2023-07-29T01:22:42;17.50;99.90
23116;DHT22;11727;52.134;5.052;2023-07-29T01:25:08;17.50;99.90
23116;DHT22;11727;52.134;5.052;2023-07-29T01:27:34;17.50;99.90
23116;DHT22;11727;52.134;5.052;2023-07-29T01:30:00;17.50;99.90
23116;DHT22;11727;52.134;5.052;2023-07-29T01:32:55;17.50;99.90
23116;DHT22;11727;52.134;5.052;2023-07-29T01:35:42;17.50;99.90
23116;DHT22;11727;52.134;5.052;2023-07-29T01:38:18;17.40;99.90
23116;DHT22;11727;52.134;5.052;2023-07-29T01:40:48;17.40;99.90
23116;DHT22;11727;52.134;5.052;2023-07-29T01:43:14;17.40;99.90
23116;DHT22;11727;52.134;5.052;2023-07-29T01:45:40;17.40;99.90
23116;DHT22;11727;52.134;5.052;2023-07-29T01:48:07;17.40;99.90
23116;DHT22;11727;52.134;5.052;2023-07-29T01:50:33;17.40;99.90
23116;DHT22;11727;52.134;5.052;2023-07-29T01:52:59;17.40;99.90
23116;DHT22;11727;52.134;5.052;2023-07-29T01:55:24;17.40;99.90
23116;DHT22;11727;52.134;5.052;2023-07-29T01:57:50;17.30;99.90
23116;DHT22;11727;52.134;5.052;2023-07-29T02:00:20;17.40;99.90
23116;DHT22;11727;52.134;5.052;2023-07-29T02:02:46;17.40;99.90
23116;DHT22;11727;52.134;5.052;2023-07-29T02:05:11;17.40;99.90
23116;DHT22;11727;52.134;5.052;2023-07-29T02:07:37;17.30;99.90
23116;DHT22;11727;52.134;5.052;2023-07-29T02:10:03;17.30;99.90
23116;DHT22;11727;52.134;5.052;2023-07-29T02:12:29;17.30;99.90
23116;DHT22;11727;52.134;5.052;2023-07-29T02:14:54;17.40;99.90
23116;DHT22;11727;52.134;5.052;2023-07-29T02:17:20;17.30;99.90
23116;DHT22;11727;52.134;5.052;2023-07-29T02:19:46;17.30;99.90
23116;DHT22;11727;52.134;5.052;2023-07-29T02:22:17;17.30;99.90
23116;DHT22;11727;52.134;5.052;2023-07-29T02:24:43;17.30;99.90
23116;DHT22;11727;52.134;5.052;2023-07-29T02:27:08;17.30;99.90
23116;DHT22;11727;52.134;5.052;2023-07-29T02:29:34;17.30;99.90
23116;DHT22;11727;52.134;5.052;2023-07-29T02:32:00;17.30;99.90
23116;DHT22;11727;52.134;5.052;2023-07-29T02:34:25;17.20;99.90
23116;DHT22;11727;52.134;5.052;2023-07-29T02:36:51;17.30;99.90
23116;DHT22;11727;52.134;5.052;2023-07-29T02:39:17;17.30;99.90
23116;DHT22;11727;52.134;5.052;2023-07-29T02:41:42;17.20;99.90
23116;DHT22;11727;52.134;5.052;2023-07-29T02:44:08;17.20;99.90
23116;DHT22;11727;52.134;5.052;2023-07-29T02:46:34;17.20;99.90
23116;DHT22;11727;52.134;5.052;2023-07-29T02:48:59;17.20;99.90
23116;DHT22;11727;52.134;5.052;2023-07-29T02:51:25;17.20;99.90
23116;DHT22;11727;52.134;5.052;2023-07-29T02:53:50;17.20;99.90
23116;DHT22;11727;52.134;5.052;2023-07-29T02:56:16;17.20;99.90
23116;DHT22;11727;52.134;5.052;2023-07-29T02:58:42;17.10;99.90
23116;DHT22;11727;52.134;5.052;2023-07-29T03:01:07;17.10;99.90
23116;DHT22;11727;52.134;5.052;2023-07-29T03:03:33;17.10;99.90
23116;DHT22;11727;52.134;5.052;2023-07-29T03:06:03;17.20;99.90
23116;DHT22;11727;52.134;5.052;2023-07-29T03:08:29;17.20;99.90
23116;DHT22;11727;52.134;5.052;2023-07-29T03:10:55;17.20;99.90
23116;DHT22;11727;52.134;5.052;2023-07-29T03:13:21;17.10;99.90
23116;DHT22;11727;52.134;5.052;2023-07-29T03:15:47;17.10;99.90
23116;DHT22;11727;52.134;5.052;2023-07-29T03:18:12;17.10;99.90
23116;DHT22;11727;52.134;5.052;2023-07-29T03:20:38;17.00;99.90
23116;DHT22;11727;52.134;5.052;2023-07-29T03:23:03;17.10;99.90
23116;DHT22;11727;52.134;5.052;2023-07-29T03:25:29;17.00;99.90
23116;DHT22;11727;52.134;5.052;2023-07-29T03:27:55;17.00;99.90
23116;DHT22;11727;52.134;5.052;2023-07-29T03:30:23;17.00;99.90
23116;DHT22;11727;52.134;5.052;2023-07-29T03:32:49;17.00;99.90
23116;DHT22;11727;52.134;5.052;2023-07-29T03:35:15;17.00;99.90
23116;DHT22;11727;52.134;5.052;2023-07-29T03:37:41;17.00;99.90
23116;DHT22;11727;52.134;5.052;2023-07-29T03:40:07;17.00;99.90
23116;DHT22;11727;52.134;5.052;2023-07-29T03:42:35;16.90;99.90
23116;DHT22;11727;52.134;5.052;2023-07-29T03:45:00;17.00;99.90
23116;DHT22;11727;52.134;5.052;2023-07-29T03:47:26;16.90;99.90
23116;DHT22;11727;52.134;5.052;2023-07-29T03:49:52;16.80;99.90
23116;DHT22;11727;52.134;5.052;2023-07-29T03:52:18;16.80;99.90
23116;DHT22;11727;52.134;5.052;2023-07-29T03:54:43;16.80;99.90
23116;DHT22;11727;52.134;5.052;2023-07-29T03:57:09;16.80;99.90
23116;DHT22;11727;52.134;5.052;2023-07-29T03:59:37;16.80;99.90
23116;DHT22;11727;52.134;5.052;2023-07-29T04:02:02;16.80;99.90
23116;DHT22;11727;52.134;5.052;2023-07-29T04:04:28;16.70;99.90
23116;DHT22;11727;52.134;5.052;2023-07-29T04:06:54;16.70;99.90
23116;DHT22;11727;52.134;5.052;2023-07-29T04:09:19;16.70;99.90
23116;DHT22;11727;52.134;5.052;2023-07-29T04:11:45;16.70;99.90
23116;DHT22;11727;52.134;5.052;2023-07-29T04:14:10;16.70;99.90
23116;DHT22;11727;52.134;5.052;2023-07-29T04:16:36;16.70;99.90
23116;DHT22;11727;52.134;5.052;2023-07-29T04:19:02;16.70;99.90
23116;DHT22;11727;52.134;5.052;2023-07-29T04:21:27;16.70;99.90
23116;DHT22;11727;52.134;5.052;2023-07-29T04:23:53;16.70;99.90
23116;DHT22;11727;52.134;5.052;2023-07-29T04:26:18;16.70;99.90
23116;DHT22;11727;52.134;5.052;2023-07-29T04:28:44;16.70;99.90
23116;DHT22;11727;52.134;5.052;2023-07-29T04:31:09;16.70;99.90
23116;DHT22;11727;52.134;5.052;2023-07-29T04:33:35;16.70;99.90
23116;DHT22;11727;52.134;5.052;2023-07-29T04:36:01;16.70;99.90
23116;DHT22;11727;52.134;5.052;2023-07-29T04:38:31;16.70;99.90
23116;DHT22;11727;52.134;5.052;2023-07-29T04:41:00;16.70;99.90
23116;DHT22;11727;52.134;5.052;2023-07-29T04:43:30;16.70;99.90
23116;DHT22;11727;52.134;5.052;2023-07-29T04:45:55;16.70;99.90
23116;DHT22;11727;52.134;5.052;2023-07-29T04:48:21;16.70;99.90
23116;DHT22;11727;52.134;5.052;2023-07-29T04:50:47;16.60;99.90
23116;DHT22;11727;52.134;5.052;2023-07-29T04:53:13;16.70;99.90
23116;DHT22;11727;52.134;5.052;2023-07-29T04:55:38;16.70;99.90
23116;DHT22;11727;52.134;5.052;2023-07-29T04:58:05;16.70;99.90
23116;DHT22;11727;52.134;5.052;2023-07-29T05:00:31;16.70;99.90
23116;DHT22;11727;52.134;5.052;2023-07-29T05:02:57;16.70;99.90
23116;DHT22;11727;52.134;5.052;2023-07-29T05:05:22;16.70;99.90
23116;DHT22;11727;52.134;5.052;2023-07-29T05:07:48;16.70;99.90
23116;DHT22;11727;52.134;5.052;2023-07-29T05:10:13;16.70;99.90
23116;DHT22;11727;52.134;5.052;2023-07-29T05:12:39;16.70;99.90
23116;DHT22;11727;52.134;5.052;2023-07-29T05:15:05;16.80;99.90
23116;DHT22;11727;52.134;5.052;2023-07-29T05:17:31;16.80;99.90
23116;DHT22;11727;52.134;5.052;2023-07-29T05:19:56;16.80;99.90
23116;DHT22;11727;52.134;5.052;2023-07-29T05:22:22;16.80;99.90
23116;DHT22;11727;52.134;5.052;2023-07-29T05:24:47;16.80;99.90
23116;DHT22;11727;52.134;5.052;2023-07-29T05:27:13;16.80;99.90
23116;DHT22;11727;52.134;5.052;2023-07-29T05:29:39;16.80;99.90
23116;DHT22;11727;52.134;5.052;2023-07-29T05:32:05;16.90;99.90
23116;DHT22;11727;52.134;5.052;2023-07-29T05:34:30;16.90;99.90
23116;DHT22;11727;52.134;5.052;2023-07-29T05:36:56;16.90;99.90
23116;DHT22;11727;52.134;5.052;2023-07-29T05:39:21;16.90;99.90
23116;DHT22;11727;52.134;5.052;2023-07-29T05:41:47;16.90;99.90
23116;DHT22;11727;52.134;5.052;2023-07-29T05:44:13;16.80;99.90
23116;DHT22;11727;52.134;5.052;2023-07-29T05:46:38;16.80;99.90
23116;DHT22;11727;52.134;5.052;2023-07-29T05:49:04;16.80;99.90
23116;DHT22;11727;52.134;5.052;2023-07-29T05:51:29;16.90;99.90
23116;DHT22;11727;52.134;5.052;2023-07-29T05:53:55;17.00;99.90
23116;DHT22;11727;52.134;5.052;2023-07-29T05:56:21;17.00;99.90
23116;DHT22;11727;52.134;5.052;2023-07-29T05:58:46;17.10;99.90
23116;DHT22;11727;52.134;5.052;2023-07-29T06:01:12;17.20;99.90
23116;DHT22;11727;52.134;5.052;2023-07-29T06:03:37;17.20;99.90
23116;DHT22;11727;52.134;5.052;2023-07-29T06:06:03;17.30;99.90
23116;DHT22;11727;52.134;5.052;2023-07-29T06:08:28;17.30;99.90
23116;DHT22;11727;52.134;5.052;2023-07-29T06:10:54;17.50;99.90
23116;DHT22;11727;52.134;5.052;2023-07-29T06:13:20;17.50;99.90
23116;DHT22;11727;52.134;5.052;2023-07-29T06:15:45;17.50;99.90
23116;DHT22;11727;52.134;5.052;2023-07-29T06:18:11;17.50;99.90
23116;DHT22;11727;52.134;5.052;2023-07-29T06:20:37;17.60;99.90
23116;DHT22;11727;52.134;5.052;2023-07-29T06:23:03;17.60;99.90
23116;DHT22;11727;52.134;5.052;2023-07-29T06:25:28;17.60;99.90
23116;DHT22;11727;52.134;5.052;2023-07-29T06:27:54;17.60;99.90
23116;DHT22;11727;52.134;5.052;2023-07-29T06:30:20;17.70;99.90
23116;DHT22;11727;52.134;5.052;2023-07-29T06:32:45;17.80;99.90
23116;DHT22;11727;52.134;5.052;2023-07-29T06:35:11;17.80;99.90
23116;DHT22;11727;52.134;5.052;2023-07-29T06:37:36;17.80;99.90
23116;DHT22;11727;52.134;5.052;2023-07-29T06:40:02;17.80;99.90
23116;DHT22;11727;52.134;5.052;2023-07-29T06:42:28;17.80;99.90
23116;DHT22;11727;52.134;5.052;2023-07-29T06:44:54;17.90;99.90
23116;DHT22;11727;52.134;5.052;2023-07-29T06:47:20;17.90;99.90
23116;DHT22;11727;52.134;5.052;2023-07-29T06:49:45;17.90;99.90
23116;DHT22;11727;52.134;5.052;2023-07-29T06:52:11;18.00;99.90
23116;DHT22;11727;52.134;5.052;2023-07-29T06:54:36;18.10;99.90
23116;DHT22;11727;52.134;5.052;2023-07-29T06:57:02;18.10;99.90
23116;DHT22;11727;52.134;5.052;2023-07-29T06:59:28;18.10;99.90
23116;DHT22;11727;52.134;5.052;2023-07-29T07:01:53;18.10;99.90
23116;DHT22;11727;52.134;5.052;2023-07-29T07:04:19;18.10;99.90
23116;DHT22;11727;52.134;5.052;2023-07-29T07:06:44;18.10;99.90
23116;DHT22;11727;52.134;5.052;2023-07-29T07:09:10;18.10;99.90
23116;DHT22;11727;52.134;5.052;2023-07-29T07:11:36;18.10;99.90
23116;DHT22;11727;52.134;5.052;2023-07-29T07:14:01;18.20;99.90
23116;DHT22;11727;52.134;5.052;2023-07-29T07:16:27;18.20;99.90
23116;DHT22;11727;52.134;5.052;2023-07-29T07:18:56;18.20;99.90
23116;DHT22;11727;52.134;5.052;2023-07-29T07:21:21;18.30;99.90
23116;DHT22;11727;52.134;5.052;2023-07-29T07:23:49;18.30;99.90
23116;DHT22;11727;52.134;5.052;2023-07-29T07:26:15;18.30;99.90
23116;DHT22;11727;52.134;5.052;2023-07-29T07:28:40;18.30;99.90
23116;DHT22;11727;52.134;5.052;2023-07-29T07:31:06;18.40;99.90
23116;DHT22;11727;52.134;5.052;2023-07-29T07:33:32;18.50;99.90
23116;DHT22;11727;52.134;5.052;2023-07-29T07:35:57;18.50;99.90
23116;DHT22;11727;52.134;5.052;2023-07-29T07:38:23;18.60;99.90
23116;DHT22;11727;52.134;5.052;2023-07-29T07:40:55;18.70;99.90
23116;DHT22;11727;52.134;5.052;2023-07-29T07:43:22;18.70;99.90
23116;DHT22;11727;52.134;5.052;2023-07-29T07:45:48;18.80;99.90
23116;DHT22;11727;52.134;5.052;2023-07-29T07:48:14;18.90;99.90
23116;DHT22;11727;52.134;5.052;2023-07-29T07:50:42;19.00;99.90
23116;DHT22;11727;52.134;5.052;2023-07-29T07:53:07;19.10;99.90
23116;DHT22;11727;52.134;5.052;2023-07-29T07:55:33;19.10;99.90
23116;DHT22;11727;52.134;5.052;2023-07-29T07:57:59;19.10;99.90
23116;DHT22;11727;52.134;5.052;2023-07-29T08:00:24;19.10;99.90
23116;DHT22;11727;52.134;5.052;2023-07-29T08:02:50;19.00;99.90
23116;DHT22;11727;52.134;5.052;2023-07-29T08:05:15;19.20;99.90
23116;DHT22;11727;52.134;5.052;2023-07-29T08:07:41;19.40;99.90
23116;DHT22;11727;52.134;5.052;2023-07-29T08:10:07;19.50;99.90
23116;DHT22;11727;52.134;5.052;2023-07-29T08:12:32;19.70;99.90
23116;DHT22;11727;52.134;5.052;2023-07-29T08:14:58;19.70;99.90
23116;DHT22;11727;52.134;5.052;2023-07-29T08:17:24;19.80;99.90
23116;DHT22;11727;52.134;5.052;2023-07-29T08:19:49;19.90;99.90
23116;DHT22;11727;52.134;5.052;2023-07-29T08:22:15;20.00;99.90
23116;DHT22;11727;52.134;5.052;2023-07-29T08:24:42;20.00;99.90
23116;DHT22;11727;52.134;5.052;2023-07-29T08:27:08;20.00;99.90
23116;DHT22;11727;52.134;5.052;2023-07-29T08:29:34;20.00;99.90
23116;DHT22;11727;52.134;5.052;2023-07-29T08:31:59;19.90;99.90
23116;DHT22;11727;52.134;5.052;2023-07-29T08:34:25;19.80;99.90
23116;DHT22;11727;52.134;5.052;2023-07-29T08:36:50;19.80;99.90
23116;DHT22;11727;52.134;5.052;2023-07-29T08:39:16;19.70;99.90
23116;DHT22;11727;52.134;5.052;2023-07-29T08:41:51;19.70;99.90
23116;DHT22;11727;52.134;5.052;2023-07-29T08:44:22;19.70;99.90
23116;DHT22;11727;52.134;5.052;2023-07-29T08:46:49;19.90;99.90
23116;DHT22;11727;52.134;5.052;2023-07-29T08:49:16;20.10;99.90
23116;DHT22;11727;52.134;5.052;2023-07-29T08:51:47;20.30;99.90
23116;DHT22;11727;52.134;5.052;2023-07-29T08:54:14;20.30;99.90
23116;DHT22;11727;52.134;5.052;2023-07-29T08:56:43;20.40;99.90
23116;DHT22;11727;52.134;5.052;2023-07-29T08:59:09;20.40;99.90
23116;DHT22;11727;52.134;5.052;2023-07-29T09:01:39;20.40;99.90
23116;DHT22;11727;52.134;5.052;2023-07-29T09:04:05;20.30;99.90
23116;DHT22;11727;52.134;5.052;2023-07-29T09:06:35;20.30;99.90
23116;DHT22;11727;52.134;5.052;2023-07-29T09:09:01;20.20;99.90
23116;DHT22;11727;52.134;5.052;2023-07-29T09:11:28;20.20;99.90
23116;DHT22;11727;52.134;5.052;2023-07-29T09:13:53;20.20;99.90
23116;DHT22;11727;52.134;5.052;2023-07-29T09:16:22;20.20;99.90
23116;DHT22;11727;52.134;5.052;2023-07-29T09:18:49;20.30;99.90
23116;DHT22;11727;52.134;5.052;2023-07-29T09:21:27;20.40;99.90
23116;DHT22;11727;52.134;5.052;2023-07-29T09:23:54;20.40;99.90
23116;DHT22;11727;52.134;5.052;2023-07-29T09:26:26;20.40;99.90
23116;DHT22;11727;52.134;5.052;2023-07-29T09:28:54;20.30;99.90
23116;DHT22;11727;52.134;5.052;2023-07-29T09:31:24;20.30;99.90
23116;DHT22;11727;52.134;5.052;2023-07-29T09:33:54;20.10;99.90
23116;DHT22;11727;52.134;5.052;2023-07-29T09:36:21;20.10;99.90
23116;DHT22;11727;52.134;5.052;2023-07-29T09:38:47;20.00;99.90
23116;DHT22;11727;52.134;5.052;2023-07-29T09:41:13;20.00;99.90
23116;DHT22;11727;52.134;5.052;2023-07-29T09:43:40;20.00;99.90
23116;DHT22;11727;52.134;5.052;2023-07-29T09:46:06;20.00;99.90
23116;DHT22;11727;52.134;5.052;2023-07-29T09:48:36;20.00;99.90
23116;DHT22;11727;52.134;5.052;2023-07-29T09:51:15;20.10;99.90
23116;DHT22;11727;52.134;5.052;2023-07-29T09:53:42;20.10;99.90
23116;DHT22;11727;52.134;5.052;2023-07-29T09:56:08;20.10;99.90
23116;DHT22;11727;52.134;5.052;2023-07-29T09:58:34;20.00;99.90
23116;DHT22;11727;52.134;5.052;2023-07-29T10:01:01;20.00;99.90
23116;DHT22;11727;52.134;5.052;2023-07-29T10:03:27;19.90;99.90
23116;DHT22;11727;52.134;5.052;2023-07-29T10:05:54;19.80;99.90
23116;DHT22;11727;52.134;5.052;2023-07-29T10:08:22;19.70;99.90
23116;DHT22;11727;52.134;5.052;2023-07-29T10:10:50;19.50;99.90
23116;DHT22;11727;52.134;5.052;2023-07-29T10:13:16;19.40;99.90
23116;DHT22;11727;52.134;5.052;2023-07-29T10:15:42;19.30;99.90
23116;DHT22;11727;52.134;5.052;2023-07-29T10:18:09;19.20;99.90
23116;DHT22;11727;52.134;5.052;2023-07-29T10:20:35;19.10;99.90
23116;DHT22;11727;52.134;5.052;2023-07-29T10:23:03;19.20;99.90
23116;DHT22;11727;52.134;5.052;2023-07-29T10:25:41;19.30;99.90
23116;DHT22;11727;52.134;5.052;2023-07-29T10:28:11;19.30;99.90
23116;DHT22;11727;52.134;5.052;2023-07-29T10:30:38;19.40;99.90
23116;DHT22;11727;52.134;5.052;2023-07-29T10:33:05;19.50;99.90
23116;DHT22;11727;52.134;5.052;2023-07-29T10:35:34;19.40;99.90
23116;DHT22;11727;52.134;5.052;2023-07-29T10:38:02;19.50;99.90
23116;DHT22;11727;52.134;5.052;2023-07-29T10:40:47;19.50;99.90
23116;DHT22;11727;52.134;5.052;2023-07-29T10:43:25;19.60;99.90
23116;DHT22;11727;52.134;5.052;2023-07-29T10:45:51;19.70;99.90
23116;DHT22;11727;52.134;5.052;2023-07-29T10:51:30;19.70;99.90
23116;DHT22;11727;52.134;5.052;2023-07-29T10:54:13;19.70;99.90
23116;DHT22;11727;52.134;5.052;2023-07-29T10:56:44;19.80;99.90
23116;DHT22;11727;52.134;5.052;2023-07-29T11:01:39;19.70;99.90
23116;DHT22;11727;52.134;5.052;2023-07-29T11:07:19;19.70;99.90
23116;DHT22;11727;52.134;5.052;2023-07-29T11:09:59;19.60;99.90
23116;DHT22;11727;52.134;5.052;2023-07-29T11:12:50;19.50;99.90
23116;DHT22;11727;52.134;5.052;2023-07-29T11:15:25;19.40;99.90
23116;DHT22;11727;52.134;5.052;2023-07-29T11:17:55;19.30;99.90
23116;DHT22;11727;52.134;5.052;2023-07-29T11:20:23;19.30;99.90
23116;DHT22;11727;52.134;5.052;2023-07-29T11:22:49;19.20;99.90
23116;DHT22;11727;52.134;5.052;2023-07-29T11:25:16;19.10;99.90
23116;DHT22;11727;52.134;5.052;2023-07-29T11:27:42;19.00;99.90
23116;DHT22;11727;52.134;5.052;2023-07-29T11:30:10;19.00;99.90
23116;DHT22;11727;52.134;5.052;2023-07-29T11:32:37;18.90;99.90
23116;DHT22;11727;52.134;5.052;2023-07-29T11:37:37;18.90;99.90
23116;DHT22;11727;52.134;5.052;2023-07-29T11:40:03;18.90;99.90
23116;DHT22;11727;52.134;5.052;2023-07-29T11:42:32;18.90;99.90
23116;DHT22;11727;52.134;5.052;2023-07-29T11:44:58;19.00;99.90
23116;DHT22;11727;52.134;5.052;2023-07-29T11:47:24;19.10;99.90
23116;DHT22;11727;52.134;5.052;2023-07-29T11:49:50;19.30;99.90
23116;DHT22;11727;52.134;5.052;2023-07-29T11:52:15;19.50;99.90
23116;DHT22;11727;52.134;5.052;2023-07-29T11:54:46;19.70;99.90
23116;DHT22;11727;52.134;5.052;2023-07-29T11:57:12;19.80;99.90
23116;DHT22;11727;52.134;5.052;2023-07-29T11:59:39;19.80;99.90
23116;DHT22;11727;52.134;5.052;2023-07-29T12:02:14;19.90;99.90
23116;DHT22;11727;52.134;5.052;2023-07-29T12:04:41;19.90;99.90
23116;DHT22;11727;52.134;5.052;2023-07-29T12:07:08;20.00;99.90
23116;DHT22;11727;52.134;5.052;2023-07-29T12:09:37;20.00;99.90
23116;DHT22;11727;52.134;5.052;2023-07-29T12:12:04;20.00;99.90
23116;DHT22;11727;52.134;5.052;2023-07-29T12:14:31;20.10;99.90
23116;DHT22;11727;52.134;5.052;2023-07-29T12:17:00;20.10;99.90
23116;DHT22;11727;52.134;5.052;2023-07-29T12:19:32;20.20;99.90
23116;DHT22;11727;52.134;5.052;2023-07-29T12:21:58;20.20;99.90
23116;DHT22;11727;52.134;5.052;2023-07-29T12:24:24;20.20;99.90
23116;DHT22;11727;52.134;5.052;2023-07-29T12:26:49;20.20;99.90
23116;DHT22;11727;52.134;5.052;2023-07-29T12:29:17;20.20;99.90
23116;DHT22;11727;52.134;5.052;2023-07-29T12:31:45;20.30;99.90
23116;DHT22;11727;52.134;5.052;2023-07-29T12:34:21;20.40;99.90
23116;DHT22;11727;52.134;5.052;2023-07-29T12:36:49;20.50;99.90
23116;DHT22;11727;52.134;5.052;2023-07-29T12:39:28;20.60;99.90
23116;DHT22;11727;52.134;5.052;2023-07-29T12:41:56;20.70;99.90
23116;DHT22;11727;52.134;5.052;2023-07-29T12:44:23;20.80;99.90
23116;DHT22;11727;52.134;5.052;2023-07-29T12:46:48;20.90;99.90
23116;DHT22;11727;52.134;5.052;2023-07-29T12:49:14;21.00;99.90
23116;DHT22;11727;52.134;5.052;2023-07-29T12:51:40;21.10;99.90
23116;DHT22;11727;52.134;5.052;2023-07-29T12:54:06;21.10;99.90
23116;DHT22;11727;52.134;5.052;2023-07-29T12:56:32;21.10;99.90
23116;DHT22;11727;52.134;5.052;2023-07-29T12:58:59;21.10;99.90
23116;DHT22;11727;52.134;5.052;2023-07-29T13:01:25;21.10;99.90
23116;DHT22;11727;52.134;5.052;2023-07-29T13:03:51;21.20;99.90
23116;DHT22;11727;52.134;5.052;2023-07-29T13:06:17;21.30;99.90
23116;DHT22;11727;52.134;5.052;2023-07-29T13:08:45;21.30;99.90
23116;DHT22;11727;52.134;5.052;2023-07-29T13:11:11;21.30;99.90
23116;DHT22;11727;52.134;5.052;2023-07-29T13:13:37;21.40;99.90
23116;DHT22;11727;52.134;5.052;2023-07-29T13:16:03;21.50;99.90
23116;DHT22;11727;52.134;5.052;2023-07-29T13:18:28;21.50;99.90
23116;DHT22;11727;52.134;5.052;2023-07-29T13:20:54;21.60;99.90
23116;DHT22;11727;52.134;5.052;2023-07-29T13:23:20;21.70;99.90
23116;DHT22;11727;52.134;5.052;2023-07-29T13:25:46;21.70;99.90
23116;DHT22;11727;52.134;5.052;2023-07-29T13:28:12;21.80;99.90
23116;DHT22;11727;52.134;5.052;2023-07-29T13:30:41;21.90;99.90
23116;DHT22;11727;52.134;5.052;2023-07-29T13:33:07;21.90;99.90
23116;DHT22;11727;52.134;5.052;2023-07-29T13:35:33;21.90;99.90
23116;DHT22;11727;52.134;5.052;2023-07-29T13:37:59;21.80;99.90
23116;DHT22;11727;52.134;5.052;2023-07-29T13:40:25;21.90;99.90
23116;DHT22;11727;52.134;5.052;2023-07-29T13:42:50;22.00;99.90
23116;DHT22;11727;52.134;5.052;2023-07-29T13:45:17;22.10;99.90
23116;DHT22;11727;52.134;5.052;2023-07-29T13:47:43;22.20;99.90
23116;DHT22;11727;52.134;5.052;2023-07-29T13:50:08;22.20;99.90
23116;DHT22;11727;52.134;5.052;2023-07-29T13:52:35;22.20;99.90
23116;DHT22;11727;52.134;5.052;2023-07-29T13:55:01;22.30;99.90
23116;DHT22;11727;52.134;5.052;2023-07-29T13:57:26;22.40;99.90
23116;DHT22;11727;52.134;5.052;2023-07-29T13:59:52;22.40;99.90
23116;DHT22;11727;52.134;5.052;2023-07-29T14:02:17;22.50;99.90
23116;DHT22;11727;52.134;5.052;2023-07-29T14:04:45;22.50;99.90
23116;DHT22;11727;52.134;5.052;2023-07-29T14:07:10;22.50;99.90
23116;DHT22;11727;52.134;5.052;2023-07-29T14:09:36;22.50;99.90
23116;DHT22;11727;52.134;5.052;2023-07-29T14:12:02;22.50;99.90
23116;DHT22;11727;52.134;5.052;2023-07-29T14:14:28;22.60;99.90
23116;DHT22;11727;52.134;5.052;2023-07-29T14:16:54;22.50;99.90
23116;DHT22;11727;52.134;5.052;2023-07-29T14:19:20;22.60;99.90
23116;DHT22;11727;52.134;5.052;2023-07-29T14:21:45;22.70;99.90
23116;DHT22;11727;52.134;5.052;2023-07-29T14:24:11;22.60;99.90
23116;DHT22;11727;52.134;5.052;2023-07-29T14:26:37;22.60;99.90
23116;DHT22;11727;52.134;5.052;2023-07-29T14:29:02;22.60;99.90
23116;DHT22;11727;52.134;5.052;2023-07-29T14:31:28;22.50;99.90
23116;DHT22;11727;52.134;5.052;2023-07-29T14:33:53;22.50;99.90
23116;DHT22;11727;52.134;5.052;2023-07-29T14:36:19;22.50;99.90
23116;DHT22;11727;52.134;5.052;2023-07-29T14:38:44;22.70;99.90
23116;DHT22;11727;52.134;5.052;2023-07-29T14:41:10;22.80;99.90
23116;DHT22;11727;52.134;5.052;2023-07-29T14:43:35;22.90;99.90
23116;DHT22;11727;52.134;5.052;2023-07-29T14:46:01;22.90;99.90
23116;DHT22;11727;52.134;5.052;2023-07-29T14:48:27;23.00;99.90
23116;DHT22;11727;52.134;5.052;2023-07-29T14:50:53;23.00;99.90
23116;DHT22;11727;52.134;5.052;2023-07-29T14:53:19;22.90;99.90
23116;DHT22;11727;52.134;5.052;2023-07-29T14:55:45;22.90;99.90
23116;DHT22;11727;52.134;5.052;2023-07-29T14:58:10;22.80;99.90
23116;DHT22;11727;52.134;5.052;2023-07-29T15:00:36;22.80;99.90
23116;DHT22;11727;52.134;5.052;2023-07-29T15:03:02;22.70;99.90
23116;DHT22;11727;52.134;5.052;2023-07-29T15:05:28;22.70;99.90
23116;DHT22;11727;52.134;5.052;2023-07-29T15:07:54;22.70;99.90
23116;DHT22;11727;52.134;5.052;2023-07-29T15:10:20;22.70;99.90
23116;DHT22;11727;52.134;5.052;2023-07-29T15:12:46;22.60;99.90
23116;DHT22;11727;52.134;5.052;2023-07-29T15:15:12;22.50;99.90
23116;DHT22;11727;52.134;5.052;2023-07-29T15:17:38;22.40;99.90
23116;DHT22;11727;52.134;5.052;2023-07-29T15:20:04;22.40;99.90
23116;DHT22;11727;52.134;5.052;2023-07-29T15:22:30;22.40;99.90
23116;DHT22;11727;52.134;5.052;2023-07-29T15:25:08;22.50;99.90
23116;DHT22;11727;52.134;5.052;2023-07-29T15:27:34;22.60;99.90
23116;DHT22;11727;52.134;5.052;2023-07-29T15:30:00;22.70;99.90
23116;DHT22;11727;52.134;5.052;2023-07-29T15:32:25;22.80;99.90
23116;DHT22;11727;52.134;5.052;2023-07-29T15:34:51;22.80;99.90
23116;DHT22;11727;52.134;5.052;2023-07-29T15:37:17;22.80;99.90
23116;DHT22;11727;52.134;5.052;2023-07-29T15:39:42;22.90;99.90
23116;DHT22;11727;52.134;5.052;2023-07-29T15:42:08;22.80;99.90